PWSweather.com
Personal Weather Stations
Station Observations
KMIEASTT1
Tawas Bay, East Tawas, MI 48730

Tawas BayEast Tawas, MI 48730

Lat: 44.28, Lon: -83.48

Elevation: 600

Station Type: Davis VantagePro

http://www.tawasbayweather.com

High Low Average
Temperature 27.0°F-2.8°F 18.3°F-7.6°F 23.3°F-4.8°F
Dew Point 22.3°F-5.4°F 8.6°F-13.0°F 14.5°F-9.7°F
Winds 25.0 mph ESE40.2 mph ESE Calm Calm 5.9 mph 9.5 mph
Wind Gusts 31.0 mph49.9 mph 3.0 mph4.8 mph 9.5 mph15.3 mph
Humidity 82% 50% 69%
Pressure 30.66 in1038.30 in 30.39 in1029.10 in -
Precipitation 0.00 in0.00 in - -
Hour Temp Dew Point Humidity Winds Wind Gusts Pressure Precip Precip Rate Daily Precip Total
12:00 AM 22.6°F-5.2°C 11.6°F-11.3°C 62% 5.0 mph N8.0 kmh N 12.0 mph19.3 kmh 30.39 in1029.1 mb 0.00 in0.0 mm 0.00 in0.0 mm 0.00 in0.0 mm
12:15 AM 22.3°F-5.4°C 11.3°F-11.5°C 62% 3.0 mph NNW4.8 kmh NNW 12.0 mph19.3 kmh 30.40 in1029.5 mb 0.00 in0.0 mm 0.00 in0.0 mm 0.00 in0.0 mm
12:30 AM 22.1°F-5.5°C 11.1°F-11.6°C 62% 5.0 mph NW8.0 kmh NW 14.0 mph22.5 kmh 30.40 in1029.5 mb 0.00 in0.0 mm 0.00 in0.0 mm 0.00 in0.0 mm
12:45 AM 21.9°F-5.6°C 11.6°F-11.3°C 64% 5.0 mph NW8.0 kmh NW 11.0 mph17.7 kmh 30.41 in1029.8 mb 0.00 in0.0 mm 0.00 in0.0 mm 0.00 in0.0 mm
01:00 AM 21.8°F-5.7°C 11.9°F-11.2°C 65% 5.0 mph N8.0 kmh N 9.0 mph14.5 kmh 30.41 in1029.8 mb 0.00 in0.0 mm 0.00 in0.0 mm 0.00 in0.0 mm
01:15 AM 22.8°F-5.1°C 12.8°F-10.7°C 65% 25.0 mph ESE40.2 kmh ESE 27.0 mph43.5 kmh 30.42 in1030.1 mb 0.00 in0.0 mm 0.00 in0.0 mm 0.00 in0.0 mm
01:30 AM 22.8°F-5.1°C 12.1°F-11.1°C 63% 20.0 mph SE32.2 kmh SE 31.0 mph49.9 kmh 30.42 in1030.1 mb 0.00 in0.0 mm 0.00 in0.0 mm 0.00 in0.0 mm
01:45 AM 22.7°F-5.2°C 12.0°F-11.1°C 63% 22.0 mph ESE35.4 kmh ESE 27.0 mph43.5 kmh 30.43 in1030.5 mb 0.00 in0.0 mm 0.00 in0.0 mm 0.00 in0.0 mm
02:00 AM 22.6°F-5.2°C 11.9°F-11.2°C 63% 20.0 mph SE32.2 kmh SE 25.0 mph40.2 kmh 30.43 in1030.5 mb 0.00 in0.0 mm 0.00 in0.0 mm 0.00 in0.0 mm
02:15 AM 22.6°F-5.2°C 12.6°F-10.8°C 65% 18.0 mph SE29.0 kmh SE 23.0 mph37.0 kmh 30.44 in1030.8 mb 0.00 in0.0 mm 0.00 in0.0 mm 0.00 in0.0 mm
02:30 AM 21.2°F-6.0°C 12.0°F-11.1°C 67% 6.0 mph NW9.7 kmh NW 23.0 mph37.0 kmh 30.44 in1030.8 mb 0.00 in0.0 mm 0.00 in0.0 mm 0.00 in0.0 mm
02:45 AM 21.1°F-6.1°C 11.9°F-11.2°C 67% 3.0 mph NNW4.8 kmh NNW 6.0 mph9.7 kmh 30.46 in1031.5 mb 0.00 in0.0 mm 0.00 in0.0 mm 0.00 in0.0 mm
03:00 AM 21.0°F-6.1°C 11.8°F-11.2°C 67% 5.0 mph NW8.0 kmh NW 10.0 mph16.1 kmh 30.46 in1031.5 mb 0.00 in0.0 mm 0.00 in0.0 mm 0.00 in0.0 mm
03:15 AM 21.0°F-6.1°C 12.1°F-11.1°C 68% 4.0 mph NW6.4 kmh NW 10.0 mph16.1 kmh 30.47 in1031.8 mb 0.00 in0.0 mm 0.00 in0.0 mm 0.00 in0.0 mm
03:30 AM 20.8°F-6.2°C 11.9°F-11.2°C 68% 5.0 mph NNW8.0 kmh NNW 7.0 mph11.3 kmh 30.47 in1031.8 mb 0.00 in0.0 mm 0.00 in0.0 mm 0.00 in0.0 mm
03:45 AM 20.6°F-6.3°C 12.1°F-11.1°C 69% 3.0 mph NW4.8 kmh NW 6.0 mph9.7 kmh 30.48 in1032.2 mb 0.00 in0.0 mm 0.00 in0.0 mm 0.00 in0.0 mm
04:00 AM 20.6°F-6.3°C 12.4°F-10.9°C 70% 4.0 mph NW6.4 kmh NW 6.0 mph9.7 kmh 30.48 in1032.2 mb 0.00 in0.0 mm 0.00 in0.0 mm 0.00 in0.0 mm
04:15 AM 20.4°F-6.4°C 11.9°F-11.2°C 69% 4.0 mph NNW6.4 kmh NNW 8.0 mph12.9 kmh 30.49 in1032.5 mb 0.00 in0.0 mm 0.00 in0.0 mm 0.00 in0.0 mm
04:30 AM 20.3°F-6.5°C 12.1°F-11.1°C 70% 2.0 mph NW3.2 kmh NW 6.0 mph9.7 kmh 30.50 in1032.8 mb 0.00 in0.0 mm 0.00 in0.0 mm 0.00 in0.0 mm
04:45 AM 20.2°F-6.6°C 12.0°F-11.1°C 70% 2.0 mph NNW3.2 kmh NNW 5.0 mph8.0 kmh 30.50 in1032.8 mb 0.00 in0.0 mm 0.00 in0.0 mm 0.00 in0.0 mm
05:00 AM 20.1°F-6.6°C 11.6°F-11.3°C 69% 4.0 mph NW6.4 kmh NW 7.0 mph11.3 kmh 30.51 in1033.2 mb 0.00 in0.0 mm 0.00 in0.0 mm 0.00 in0.0 mm
05:15 AM 20.0°F-6.7°C 11.5°F-11.4°C 69% 3.0 mph NW4.8 kmh NW 7.0 mph11.3 kmh 30.52 in1033.5 mb 0.00 in0.0 mm 0.00 in0.0 mm 0.00 in0.0 mm
05:30 AM 19.9°F-6.7°C 11.1°F-11.6°C 68% 6.0 mph NW9.7 kmh NW 8.0 mph12.9 kmh 30.52 in1033.5 mb 0.00 in0.0 mm 0.00 in0.0 mm 0.00 in0.0 mm
05:45 AM 19.8°F-6.8°C 11.0°F-11.7°C 68% 8.0 mph N12.9 kmh N 8.0 mph12.9 kmh 30.53 in1033.9 mb 0.00 in0.0 mm 0.00 in0.0 mm 0.00 in0.0 mm
06:00 AM 19.7°F-6.8°C 10.5°F-11.9°C 67% 3.0 mph N4.8 kmh N 4.0 mph6.4 kmh 30.54 in1034.2 mb 0.00 in0.0 mm 0.00 in0.0 mm 0.00 in0.0 mm
06:15 AM 19.6°F-6.9°C 10.4°F-12.0°C 67% 1.0 mph N1.6 kmh N 6.0 mph9.7 kmh 30.55 in1034.5 mb 0.00 in0.0 mm 0.00 in0.0 mm 0.00 in0.0 mm
06:30 AM 19.3°F-7.1°C 9.8°F-12.3°C 66% Calm Calm 6.0 mph9.7 kmh 30.55 in1034.5 mb 0.00 in0.0 mm 0.00 in0.0 mm 0.00 in0.0 mm
06:45 AM 19.1°F-7.2°C 9.3°F-12.6°C 65% 2.0 mph NNW3.2 kmh NNW 5.0 mph8.0 kmh 30.56 in1034.9 mb 0.00 in0.0 mm 0.00 in0.0 mm 0.00 in0.0 mm
07:00 AM 18.8°F-7.3°C 9.0°F-12.8°C 65% Calm Calm 4.0 mph6.4 kmh 30.56 in1034.9 mb 0.00 in0.0 mm 0.00 in0.0 mm 0.00 in0.0 mm
07:15 AM 18.7°F-7.4°C 8.9°F-12.8°C 65% 5.0 mph NW8.0 kmh NW 5.0 mph8.0 kmh 30.56 in1034.9 mb 0.00 in0.0 mm 0.00 in0.0 mm 0.00 in0.0 mm
07:30 AM 18.5°F-7.5°C 9.1°F-12.7°C 66% 4.0 mph N6.4 kmh N 5.0 mph8.0 kmh 30.56 in1034.9 mb 0.00 in0.0 mm 0.00 in0.0 mm 0.00 in0.0 mm
08:00 AM 18.3°F-7.6°C 9.2°F-12.7°C 67% 2.0 mph N3.2 kmh N 5.0 mph8.0 kmh 30.58 in1035.6 mb 0.00 in0.0 mm 0.00 in0.0 mm 0.00 in0.0 mm
08:15 AM 18.9°F-7.3°C 9.8°F-12.3°C 67% 3.0 mph NW4.8 kmh NW 5.0 mph8.0 kmh 30.60 in1036.2 mb 0.00 in0.0 mm 0.00 in0.0 mm 0.00 in0.0 mm
08:30 AM 19.4°F-7.0°C 9.9°F-12.3°C 66% 1.0 mph N1.6 kmh N 6.0 mph9.7 kmh 30.61 in1036.6 mb 0.00 in0.0 mm 0.00 in0.0 mm 0.00 in0.0 mm
08:45 AM 19.8°F-6.8°C 9.6°F-12.4°C 64% 2.0 mph N3.2 kmh N 7.0 mph11.3 kmh 30.61 in1036.6 mb 0.00 in0.0 mm 0.00 in0.0 mm 0.00 in0.0 mm
09:00 AM 20.3°F-6.5°C 10.1°F-12.2°C 64% 6.0 mph NW9.7 kmh NW 8.0 mph12.9 kmh 30.62 in1036.9 mb 0.00 in0.0 mm 0.00 in0.0 mm 0.00 in0.0 mm
09:16 AM 20.5°F-6.4°C 9.6°F-12.4°C 62% 3.0 mph NE4.8 kmh NE 8.0 mph12.9 kmh 30.61 in1036.6 mb 0.00 in0.0 mm 0.00 in0.0 mm 0.00 in0.0 mm
09:30 AM 21.7°F-5.7°C 10.0°F-12.2°C 60% 1.0 mph NE1.6 kmh NE 5.0 mph8.0 kmh 30.62 in1036.9 mb 0.00 in0.0 mm 0.00 in0.0 mm 0.00 in0.0 mm
09:45 AM 22.1°F-5.5°C 10.0°F-12.2°C 59% 1.0 mph N1.6 kmh N 8.0 mph12.9 kmh 30.63 in1037.3 mb 0.00 in0.0 mm 0.00 in0.0 mm 0.00 in0.0 mm
10:00 AM 21.9°F-5.6°C 9.4°F-12.6°C 58% 4.0 mph NNW6.4 kmh NNW 9.0 mph14.5 kmh 30.63 in1037.3 mb 0.00 in0.0 mm 0.00 in0.0 mm 0.00 in0.0 mm
10:15 AM 21.9°F-5.6°C 9.8°F-12.3°C 59% 1.0 mph NE1.6 kmh NE 8.0 mph12.9 kmh 30.64 in1037.6 mb 0.00 in0.0 mm 0.00 in0.0 mm 0.00 in0.0 mm
10:30 AM 22.4°F-5.3°C 9.1°F-12.7°C 56% 3.0 mph NW4.8 kmh NW 7.0 mph11.3 kmh 30.64 in1037.6 mb 0.00 in0.0 mm 0.00 in0.0 mm 0.00 in0.0 mm
10:45 AM 23.8°F-4.6°C 9.2°F-12.7°C 53% Calm Calm 6.0 mph9.7 kmh 30.65 in1037.9 mb 0.00 in0.0 mm 0.00 in0.0 mm 0.00 in0.0 mm
11:00 AM 24.8°F-4.0°C 9.3°F-12.6°C 51% Calm Calm 5.0 mph8.0 kmh 30.65 in1037.9 mb 0.00 in0.0 mm 0.00 in0.0 mm 0.00 in0.0 mm
11:15 AM 25.0°F-3.9°C 9.4°F-12.6°C 51% 2.0 mph NW3.2 kmh NW 4.0 mph6.4 kmh 30.65 in1037.9 mb 0.00 in0.0 mm 0.00 in0.0 mm 0.00 in0.0 mm
11:30 AM 24.6°F-4.1°C 8.6°F-13.0°C 50% 2.0 mph NW3.2 kmh NW 8.0 mph12.9 kmh 30.65 in1037.9 mb 0.00 in0.0 mm 0.00 in0.0 mm 0.00 in0.0 mm
11:45 AM 24.4°F-4.2°C 9.3°F-12.6°C 52% 4.0 mph W6.4 kmh W 7.0 mph11.3 kmh 30.65 in1037.9 mb 0.00 in0.0 mm 0.00 in0.0 mm 0.00 in0.0 mm
12:00 PM 25.5°F-3.6°C 10.8°F-11.8°C 53% 4.0 mph NW6.4 kmh NW 5.0 mph8.0 kmh 30.65 in1037.9 mb 0.00 in0.0 mm 0.00 in0.0 mm 0.00 in0.0 mm
12:15 PM 25.2°F-3.8°C 9.6°F-12.4°C 51% 4.0 mph NW6.4 kmh NW 5.0 mph8.0 kmh 30.65 in1037.9 mb 0.00 in0.0 mm 0.00 in0.0 mm 0.00 in0.0 mm
12:30 PM 26.3°F-3.2°C 10.7°F-11.8°C 51% Calm Calm 5.0 mph8.0 kmh 30.66 in1038.3 mb 0.00 in0.0 mm 0.00 in0.0 mm 0.00 in0.0 mm
12:45 PM 25.1°F-3.8°C 15.0°F-9.4°C 65% 9.0 mph SE14.5 kmh SE 12.0 mph19.3 kmh 30.65 in1037.9 mb 0.00 in0.0 mm 0.00 in0.0 mm 0.00 in0.0 mm
01:00 PM 25.0°F-3.9°C 16.9°F-8.4°C 71% 12.0 mph ESE19.3 kmh ESE 13.0 mph20.9 kmh 30.65 in1037.9 mb 0.00 in0.0 mm 0.00 in0.0 mm 0.00 in0.0 mm
01:16 PM 25.0°F-3.9°C 18.5°F-7.5°C 76% 12.0 mph ESE19.3 kmh ESE 13.0 mph20.9 kmh 30.65 in1037.9 mb 0.00 in0.0 mm 0.00 in0.0 mm 0.00 in0.0 mm
01:30 PM 24.9°F-3.9°C 18.1°F-7.7°C 75% 13.0 mph SE20.9 kmh SE 14.0 mph22.5 kmh 30.65 in1037.9 mb 0.00 in0.0 mm 0.00 in0.0 mm 0.00 in0.0 mm
01:45 PM 24.9°F-3.9°C 18.4°F-7.6°C 76% 10.0 mph ESE16.1 kmh ESE 14.0 mph22.5 kmh 30.64 in1037.6 mb 0.00 in0.0 mm 0.00 in0.0 mm 0.00 in0.0 mm
02:00 PM 24.7°F-4.1°C 17.9°F-7.8°C 75% 10.0 mph ESE16.1 kmh ESE 14.0 mph22.5 kmh 30.64 in1037.6 mb 0.00 in0.0 mm 0.00 in0.0 mm 0.00 in0.0 mm
02:15 PM 24.9°F-3.9°C 18.4°F-7.6°C 76% 12.0 mph ESE19.3 kmh ESE 13.0 mph20.9 kmh 30.64 in1037.6 mb 0.00 in0.0 mm 0.00 in0.0 mm 0.00 in0.0 mm
02:30 PM 25.1°F-3.8°C 18.9°F-7.3°C 77% 11.0 mph ESE17.7 kmh ESE 14.0 mph22.5 kmh 30.64 in1037.6 mb 0.00 in0.0 mm 0.00 in0.0 mm 0.00 in0.0 mm
02:45 PM 24.9°F-3.9°C 18.1°F-7.7°C 75% 10.0 mph SE16.1 kmh SE 13.0 mph20.9 kmh 30.64 in1037.6 mb 0.00 in0.0 mm 0.00 in0.0 mm 0.00 in0.0 mm
03:00 PM 25.0°F-3.9°C 18.5°F-7.5°C 76% 9.0 mph ESE14.5 kmh ESE 13.0 mph20.9 kmh 30.64 in1037.6 mb 0.00 in0.0 mm 0.00 in0.0 mm 0.00 in0.0 mm
03:15 PM 24.8°F-4.0°C 17.4°F-8.1°C 73% 9.0 mph SE14.5 kmh SE 11.0 mph17.7 kmh 30.63 in1037.3 mb 0.00 in0.0 mm 0.00 in0.0 mm 0.00 in0.0 mm
03:30 PM 25.1°F-3.8°C 18.0°F-7.8°C 74% 8.0 mph ESE12.9 kmh ESE 11.0 mph17.7 kmh 30.64 in1037.6 mb 0.00 in0.0 mm 0.00 in0.0 mm 0.00 in0.0 mm
03:45 PM 24.5°F-4.2°C 16.5°F-8.6°C 71% 6.0 mph SE9.7 kmh SE 10.0 mph16.1 kmh 30.64 in1037.6 mb 0.00 in0.0 mm 0.00 in0.0 mm 0.00 in0.0 mm
04:00 PM 24.5°F-4.2°C 17.4°F-8.1°C 74% 8.0 mph SE12.9 kmh SE 8.0 mph12.9 kmh 30.64 in1037.6 mb 0.00 in0.0 mm 0.00 in0.0 mm 0.00 in0.0 mm
04:15 PM 24.7°F-4.1°C 17.6°F-8.0°C 74% 6.0 mph SSE9.7 kmh SSE 8.0 mph12.9 kmh 30.64 in1037.6 mb 0.00 in0.0 mm 0.00 in0.0 mm 0.00 in0.0 mm
04:30 PM 24.5°F-4.2°C 17.4°F-8.1°C 74% 10.0 mph SE16.1 kmh SE 10.0 mph16.1 kmh 30.64 in1037.6 mb 0.00 in0.0 mm 0.00 in0.0 mm 0.00 in0.0 mm
04:45 PM 24.1°F-4.4°C 16.4°F-8.7°C 72% 8.0 mph SE12.9 kmh SE 10.0 mph16.1 kmh 30.64 in1037.6 mb 0.00 in0.0 mm 0.00 in0.0 mm 0.00 in0.0 mm
05:00 PM 24.6°F-4.1°C 17.5°F-8.1°C 74% 8.0 mph SE12.9 kmh SE 11.0 mph17.7 kmh 30.63 in1037.3 mb 0.00 in0.0 mm 0.00 in0.0 mm 0.00 in0.0 mm
05:15 PM 24.8°F-4.0°C 18.3°F-7.6°C 76% 7.0 mph SE11.3 kmh SE 15.0 mph24.1 kmh 30.62 in1036.9 mb 0.00 in0.0 mm 0.00 in0.0 mm 0.00 in0.0 mm
05:30 PM 24.9°F-3.9°C 18.1°F-7.7°C 75% 7.0 mph SE11.3 kmh SE 10.0 mph16.1 kmh 30.62 in1036.9 mb 0.00 in0.0 mm 0.00 in0.0 mm 0.00 in0.0 mm
05:45 PM 24.7°F-4.1°C 17.9°F-7.8°C 75% 9.0 mph SE14.5 kmh SE 12.0 mph19.3 kmh 30.61 in1036.6 mb 0.00 in0.0 mm 0.00 in0.0 mm 0.00 in0.0 mm
06:00 PM 25.2°F-3.8°C 19.0°F-7.2°C 77% 9.0 mph SE14.5 kmh SE 11.0 mph17.7 kmh 30.60 in1036.2 mb 0.00 in0.0 mm 0.00 in0.0 mm 0.00 in0.0 mm
06:15 PM 25.4°F-3.7°C 18.9°F-7.3°C 76% 7.0 mph SE11.3 kmh SE 11.0 mph17.7 kmh 30.60 in1036.2 mb 0.00 in0.0 mm 0.00 in0.0 mm 0.00 in0.0 mm
06:30 PM 25.6°F-3.6°C 18.8°F-7.3°C 75% 6.0 mph SE9.7 kmh SE 9.0 mph14.5 kmh 30.61 in1036.6 mb 0.00 in0.0 mm 0.00 in0.0 mm 0.00 in0.0 mm
06:45 PM 25.7°F-3.5°C 18.9°F-7.3°C 75% 8.0 mph SE12.9 kmh SE 8.0 mph12.9 kmh 30.61 in1036.6 mb 0.00 in0.0 mm 0.00 in0.0 mm 0.00 in0.0 mm
07:00 PM 25.8°F-3.4°C 19.3°F-7.1°C 76% 7.0 mph ESE11.3 kmh ESE 9.0 mph14.5 kmh 30.60 in1036.2 mb 0.00 in0.0 mm 0.00 in0.0 mm 0.00 in0.0 mm
07:15 PM 25.5°F-3.6°C 19.3°F-7.1°C 77% 5.0 mph SE8.0 kmh SE 9.0 mph14.5 kmh 30.60 in1036.2 mb 0.00 in0.0 mm 0.00 in0.0 mm 0.00 in0.0 mm
07:30 PM 25.5°F-3.6°C 19.0°F-7.2°C 76% 6.0 mph SE9.7 kmh SE 8.0 mph12.9 kmh 30.60 in1036.2 mb 0.00 in0.0 mm 0.00 in0.0 mm 0.00 in0.0 mm
07:45 PM 25.4°F-3.7°C 17.7°F-7.9°C 72% 4.0 mph SSE6.4 kmh SSE 7.0 mph11.3 kmh 30.60 in1036.2 mb 0.00 in0.0 mm 0.00 in0.0 mm 0.00 in0.0 mm
08:00 PM 25.7°F-3.5°C 18.3°F-7.6°C 73% 5.0 mph SSE8.0 kmh SSE 6.0 mph9.7 kmh 30.60 in1036.2 mb 0.00 in0.0 mm 0.00 in0.0 mm 0.00 in0.0 mm
08:15 PM 25.9°F-3.4°C 19.7°F-6.8°C 77% 5.0 mph SE8.0 kmh SE 8.0 mph12.9 kmh 30.60 in1036.2 mb 0.00 in0.0 mm 0.00 in0.0 mm 0.00 in0.0 mm
08:30 PM 25.7°F-3.5°C 19.2°F-7.1°C 76% 2.0 mph ENE3.2 kmh ENE 7.0 mph11.3 kmh 30.60 in1036.2 mb 0.00 in0.0 mm 0.00 in0.0 mm 0.00 in0.0 mm
08:45 PM 24.7°F-4.1°C 17.9°F-7.8°C 75% 1.0 mph E1.6 kmh E 3.0 mph4.8 kmh 30.60 in1036.2 mb 0.00 in0.0 mm 0.00 in0.0 mm 0.00 in0.0 mm
09:00 PM 24.3°F-4.3°C 17.5°F-8.1°C 75% 2.0 mph E3.2 kmh E 5.0 mph8.0 kmh 30.60 in1036.2 mb 0.00 in0.0 mm 0.00 in0.0 mm 0.00 in0.0 mm
09:15 PM 24.3°F-4.3°C 17.8°F-7.9°C 76% Calm Calm 5.0 mph8.0 kmh 30.60 in1036.2 mb 0.00 in0.0 mm 0.00 in0.0 mm 0.00 in0.0 mm
09:30 PM 24.3°F-4.3°C 17.8°F-7.9°C 76% 1.0 mph E1.6 kmh E 3.0 mph4.8 kmh 30.60 in1036.2 mb 0.00 in0.0 mm 0.00 in0.0 mm 0.00 in0.0 mm
09:45 PM 25.3°F-3.7°C 20.0°F-6.7°C 80% 6.0 mph SE9.7 kmh SE 7.0 mph11.3 kmh 30.60 in1036.2 mb 0.00 in0.0 mm 0.00 in0.0 mm 0.00 in0.0 mm
10:00 PM 26.4°F-3.1°C 20.5°F-6.4°C 78% 5.0 mph SE8.0 kmh SE 8.0 mph12.9 kmh 30.60 in1036.2 mb 0.00 in0.0 mm 0.00 in0.0 mm 0.00 in0.0 mm
10:15 PM 26.7°F-2.9°C 21.1°F-6.1°C 79% 5.0 mph ESE8.0 kmh ESE 10.0 mph16.1 kmh 30.60 in1036.2 mb 0.00 in0.0 mm 0.00 in0.0 mm 0.00 in0.0 mm
10:30 PM 26.9°F-2.8°C 21.6°F-5.8°C 80% 4.0 mph SE6.4 kmh SE 8.0 mph12.9 kmh 30.60 in1036.2 mb 0.00 in0.0 mm 0.00 in0.0 mm 0.00 in0.0 mm
10:45 PM 27.0°F-2.8°C 21.7°F-5.7°C 80% 6.0 mph SE9.7 kmh SE 9.0 mph14.5 kmh 30.60 in1036.2 mb 0.00 in0.0 mm 0.00 in0.0 mm 0.00 in0.0 mm
11:00 PM 27.0°F-2.8°C 22.0°F-5.6°C 81% 8.0 mph SE12.9 kmh SE 9.0 mph14.5 kmh 30.60 in1036.2 mb 0.00 in0.0 mm 0.00 in0.0 mm 0.00 in0.0 mm
11:15 PM 27.0°F-2.8°C 22.0°F-5.6°C 81% 8.0 mph SE12.9 kmh SE 10.0 mph16.1 kmh 30.60 in1036.2 mb 0.00 in0.0 mm 0.00 in0.0 mm 0.00 in0.0 mm
11:30 PM 27.0°F-2.8°C 22.3°F-5.4°C 82% 5.0 mph ESE8.0 kmh ESE 8.0 mph12.9 kmh 30.60 in1036.2 mb 0.00 in0.0 mm 0.00 in0.0 mm 0.00 in0.0 mm
11:45 PM 27.0°F-2.8°C 22.3°F-5.4°C 82% 7.0 mph ESE11.3 kmh ESE 8.0 mph12.9 kmh 30.60 in1036.2 mb 0.00 in0.0 mm 0.00 in0.0 mm 0.00 in0.0 mm